createdAt,value
2023-04-14T00:00:00.531Z,100590
2023-04-14T00:05:00.551Z,100570
2023-04-14T00:10:00.490Z,100590
2023-04-14T00:15:00.560Z,100620
2023-04-14T00:20:00.511Z,100590
2023-04-14T00:25:00.490Z,100580
2023-04-14T00:30:00.512Z,100610
2023-04-14T00:35:00.601Z,100610
2023-04-14T00:40:00.593Z,100600
2023-04-14T00:45:00.750Z,100630
2023-04-14T00:50:00.742Z,100590
2023-04-14T00:55:00.510Z,100620
2023-04-14T01:00:00.627Z,100620
2023-04-14T01:05:00.620Z,100620
2023-04-14T01:10:00.498Z,100630
2023-04-14T01:15:00.631Z,100620
2023-04-14T01:20:00.482Z,100630
2023-04-14T01:25:00.496Z,100630
2023-04-14T01:30:00.541Z,100630
2023-04-14T01:35:00.592Z,100640
2023-04-14T01:40:00.494Z,100620
2023-04-14T01:45:00.500Z,100640
2023-04-14T01:50:00.529Z,100650
2023-04-14T01:55:00.521Z,100650
2023-04-14T02:00:00.684Z,100660
2023-04-14T02:05:00.495Z,100650
2023-04-14T02:10:00.502Z,100670
2023-04-14T02:15:00.512Z,100660
2023-04-14T02:20:00.485Z,100670
2023-04-14T02:25:00.489Z,100680
2023-04-14T02:30:00.506Z,100680
2023-04-14T02:35:00.830Z,100680
2023-04-14T02:40:00.801Z,100690
2023-04-14T02:45:00.488Z,100670
2023-04-14T02:50:00.491Z,100690
2023-04-14T02:55:00.508Z,100690
2023-04-14T03:00:00.488Z,100690
2023-04-14T03:05:00.491Z,100690
2023-04-14T03:10:00.712Z,100690
2023-04-14T03:15:00.501Z,100680
2023-04-14T03:20:00.496Z,100680
2023-04-14T03:25:00.498Z,100700
2023-04-14T03:30:00.581Z,100690
2023-04-14T03:35:00.549Z,100690
2023-04-14T03:40:00.565Z,100670
2023-04-14T03:45:00.506Z,100680
2023-04-14T03:50:00.806Z,100690
2023-04-14T03:55:00.492Z,100700
2023-04-14T04:00:00.652Z,100690
2023-04-14T04:05:01.229Z,100700
2023-04-14T04:10:00.585Z,100700
2023-04-14T04:15:00.542Z,100710
2023-04-14T04:20:00.573Z,100710
2023-04-14T04:25:00.497Z,100690
2023-04-14T04:30:00.504Z,100710
2023-04-14T04:35:00.501Z,100730
2023-04-14T04:40:00.555Z,100730
2023-04-14T04:45:00.599Z,100720
2023-04-14T04:50:00.492Z,100720
2023-04-14T04:55:00.505Z,100710
2023-04-14T05:00:00.507Z,100710
2023-04-14T05:05:00.503Z,100720
2023-04-14T05:10:00.500Z,100710
2023-04-14T05:15:00.502Z,100710
2023-04-14T05:20:00.547Z,100690
2023-04-14T05:25:00.494Z,100700
2023-04-14T05:30:00.523Z,100710
2023-04-14T05:35:00.906Z,100700
2023-04-14T05:40:00.534Z,100700
2023-04-14T05:45:01.129Z,100690
2023-04-14T05:50:01.010Z,100700
2023-04-14T05:55:00.497Z,100690
2023-04-14T06:00:00.762Z,100730
2023-04-14T06:05:00.924Z,100710
2023-04-14T06:10:00.714Z,100720
2023-04-14T06:15:00.612Z,100720
2023-04-14T06:20:00.532Z,100700
2023-04-14T06:25:00.646Z,100690
2023-04-14T06:30:00.561Z,100720
2023-04-14T06:35:00.493Z,100700
2023-04-14T06:40:00.508Z,100700
2023-04-14T06:45:00.625Z,100710
2023-04-14T06:50:00.624Z,100710
2023-04-14T06:55:00.501Z,100710
2023-04-14T07:00:00.522Z,100690
2023-04-14T07:05:00.612Z,100710
2023-04-14T07:10:00.595Z,100700
2023-04-14T07:15:00.544Z,100700
2023-04-14T07:20:00.640Z,100650
2023-04-14T07:25:00.530Z,100700
2023-04-14T07:30:00.540Z,100690
2023-04-14T07:35:00.549Z,100660
2023-04-14T07:40:01.002Z,100690
2023-04-14T07:45:00.785Z,100680
2023-04-14T07:50:00.559Z,100680
2023-04-14T07:55:00.525Z,100670
2023-04-14T08:00:00.568Z,100680
2023-04-14T08:05:00.626Z,100650
2023-04-14T08:10:00.690Z,100660
2023-04-14T08:15:00.500Z,100660
2023-04-14T08:25:00.564Z,100670
2023-04-14T08:30:00.585Z,100660
2023-04-14T08:35:35.245Z,100670
2023-04-14T08:40:00.726Z,100670
2023-04-14T08:45:00.756Z,100650
2023-04-14T08:50:00.709Z,100650
2023-04-14T08:55:00.839Z,100650
2023-04-14T09:00:01.324Z,100660
2023-04-14T09:05:00.703Z,100640
2023-04-14T09:10:00.712Z,100630
2023-04-14T09:15:00.592Z,100630
2023-04-14T09:20:37.999Z,100640
2023-04-14T09:25:00.627Z,100640
2023-04-14T09:30:00.742Z,100650
2023-04-14T09:35:00.741Z,100620
2023-04-14T09:40:00.745Z,100630
2023-04-14T09:45:00.929Z,100620
2023-04-14T09:50:00.695Z,100610
2023-04-14T09:55:00.909Z,100620
2023-04-14T10:00:00.682Z,100590
2023-04-14T10:05:00.778Z,100610
2023-04-14T10:10:00.950Z,100610
2023-04-14T10:15:00.648Z,100600
2023-04-14T10:20:01.130Z,100590
2023-04-14T10:25:00.699Z,100590
2023-04-14T10:30:00.742Z,100590
2023-04-14T10:35:00.577Z,100600
2023-04-14T10:40:00.755Z,100570
2023-04-14T10:45:00.699Z,100610
2023-04-14T10:50:00.707Z,100600
2023-04-14T10:55:00.840Z,100590
2023-04-14T11:00:00.648Z,100570
2023-04-14T11:05:00.771Z,100560
2023-04-14T11:10:00.922Z,100580
2023-04-14T11:15:00.766Z,100570
2023-04-14T11:20:00.660Z,100560
2023-04-14T11:25:01.600Z,100570
2023-04-14T11:35:00.567Z,100580
2023-04-14T11:40:00.557Z,100570
2023-04-14T11:45:00.514Z,100550
2023-04-14T11:50:00.606Z,100560
2023-04-14T11:55:00.939Z,100530
2023-04-14T12:20:00.643Z,100530
2023-04-14T12:25:00.605Z,100550
2023-04-14T12:30:00.615Z,100540
2023-04-14T12:35:00.626Z,100540
2023-04-14T12:40:00.619Z,100530
2023-04-14T12:45:00.691Z,100550
2023-04-14T12:50:00.533Z,100550
2023-04-14T12:55:00.563Z,100540
2023-04-14T13:00:00.673Z,100510
2023-04-14T13:05:00.538Z,100520
2023-04-14T13:10:00.659Z,100530
2023-04-14T13:15:00.587Z,100530
2023-04-14T13:20:00.603Z,100510
2023-04-14T13:25:00.691Z,100510
2023-04-14T13:30:00.710Z,100510
2023-04-14T13:35:00.431Z,100520
2023-04-14T13:40:00.357Z,100520
2023-04-14T13:45:00.545Z,100500
2023-04-14T13:50:00.374Z,100500
2023-04-14T13:55:03.776Z,100490
2023-04-14T14:00:03.112Z,100480
2023-04-14T14:05:00.580Z,100520
2023-04-14T14:10:01.302Z,100480
2023-04-14T14:15:00.638Z,100490
2023-04-14T14:20:01.008Z,100470
2023-04-14T14:25:14.895Z,100470
2023-04-14T14:30:02.332Z,100460
2023-04-14T14:35:01.144Z,100470
2023-04-14T14:40:00.910Z,100460
2023-04-14T14:45:00.896Z,100460
2023-04-14T14:50:02.807Z,100470
2023-04-14T14:55:01.898Z,100460
2023-04-14T15:00:01.206Z,100450
2023-04-14T15:05:00.749Z,100450
2023-04-14T15:10:00.577Z,100450
2023-04-14T15:15:00.616Z,100460
2023-04-14T15:20:01.347Z,100460
2023-04-14T15:25:00.670Z,100450
2023-04-14T15:30:00.859Z,100430
2023-04-14T15:35:01.154Z,100450
2023-04-14T15:40:00.646Z,100440
2023-04-14T15:45:00.613Z,100440
2023-04-14T15:50:10.255Z,100440
2023-04-14T15:55:00.715Z,100460
2023-04-14T16:00:01.565Z,100430
2023-04-14T16:05:01.761Z,100410
2023-04-14T16:10:00.573Z,100430
2023-04-14T16:15:00.758Z,100410
2023-04-14T16:20:00.839Z,100420
2023-04-14T16:25:00.706Z,100440
2023-04-14T16:30:01.211Z,100420
2023-04-14T16:35:00.627Z,100430
2023-04-14T16:40:04.077Z,100430
2023-04-14T16:45:00.831Z,100420
2023-04-14T16:50:00.965Z,100410
2023-04-14T16:55:01.116Z,100400
2023-04-14T17:00:02.101Z,100410
2023-04-14T17:05:00.749Z,100410
2023-04-14T17:10:00.614Z,100420
2023-04-14T17:15:01.423Z,100460
2023-04-14T17:20:00.767Z,100420
2023-04-14T17:25:00.533Z,100440
2023-04-14T17:30:00.679Z,100430
2023-04-14T17:35:01.347Z,100440
2023-04-14T17:40:00.578Z,100460
2023-04-14T17:45:02.101Z,100440
2023-04-14T17:50:00.535Z,100460
2023-04-14T17:55:00.601Z,100450
2023-04-14T18:00:01.189Z,100480
2023-04-14T18:05:00.799Z,100460
2023-04-14T18:10:00.774Z,100470
2023-04-14T18:15:01.997Z,100490
2023-04-14T18:20:00.742Z,100500
2023-04-14T18:25:00.784Z,100480
2023-04-14T18:30:00.893Z,100470
2023-04-14T18:35:01.118Z,100510
2023-04-14T18:40:00.680Z,100500
2023-04-14T18:45:00.785Z,100460
2023-04-14T18:50:02.218Z,100500
2023-04-14T18:55:01.141Z,100490
2023-04-14T19:00:02.453Z,100510
2023-04-14T19:05:01.220Z,100510
2023-04-14T19:10:00.748Z,100520
2023-04-14T19:15:00.724Z,100520
2023-04-14T19:20:00.710Z,100530
2023-04-14T19:25:00.847Z,100530
2023-04-14T19:30:01.114Z,100540
2023-04-14T19:35:00.721Z,100530
2023-04-14T19:40:00.646Z,100530
2023-04-14T19:45:01.015Z,100530
2023-04-14T19:50:00.747Z,100540
2023-04-14T19:55:00.877Z,100550
2023-04-14T20:00:04.019Z,100530
2023-04-14T20:05:00.872Z,100530
2023-04-14T20:10:00.591Z,100550
2023-04-14T20:15:00.817Z,100550
2023-04-14T20:20:00.937Z,100550
2023-04-14T20:25:01.033Z,100550
2023-04-14T20:30:00.751Z,100560
2023-04-14T20:35:00.976Z,100560
2023-04-14T20:40:01.784Z,100550
2023-04-14T20:45:00.580Z,100550
2023-04-14T20:50:00.602Z,100550
2023-04-14T20:55:00.710Z,100560
2023-04-14T21:00:00.702Z,100570
2023-04-14T21:05:00.800Z,100570
2023-04-14T21:10:00.823Z,100560
2023-04-14T21:15:46.759Z,100560
2023-04-14T21:20:00.618Z,100550
2023-04-14T21:25:00.624Z,100550
2023-04-14T21:30:00.669Z,100550
2023-04-14T21:35:01.413Z,100580
2023-04-14T21:40:00.615Z,100580
2023-04-14T21:45:00.621Z,100570
2023-04-14T21:50:00.852Z,100570
2023-04-14T21:55:00.580Z,100580
2023-04-14T22:00:01.472Z,100580
2023-04-14T22:05:00.510Z,100590
2023-04-14T22:10:00.506Z,100590
2023-04-14T22:15:00.655Z,100600
2023-04-14T22:20:00.527Z,100600
2023-04-14T22:25:01.322Z,100610
2023-04-14T22:30:00.859Z,100590
2023-04-14T22:35:00.538Z,100600
2023-04-14T22:40:00.543Z,100620
2023-04-14T22:45:00.613Z,100620
2023-04-14T22:50:00.535Z,100630
2023-04-14T22:55:00.596Z,100620
2023-04-14T23:00:00.562Z,100620
2023-04-14T23:05:00.544Z,100620
2023-04-14T23:10:00.707Z,100650
2023-04-14T23:15:00.613Z,100620
2023-04-14T23:20:00.570Z,100630
2023-04-14T23:25:00.609Z,100640
2023-04-14T23:30:00.540Z,100640
2023-04-14T23:35:00.542Z,100650
2023-04-14T23:40:00.538Z,100650
2023-04-14T23:45:00.519Z,100620
2023-04-14T23:50:00.579Z,100650
2023-04-14T23:55:00.696Z,100660
